createdAt,value
2019-05-15T00:00:34.987Z,33.00
2019-05-15T00:03:02.117Z,32.90
2019-05-15T00:05:29.267Z,32.90
2019-05-15T00:07:56.328Z,32.90
2019-05-15T00:10:23.437Z,33.00
2019-05-15T00:12:50.547Z,33.00
2019-05-15T00:15:18.211Z,32.90
2019-05-15T00:17:45.576Z,33.00
2019-05-15T00:20:12.880Z,32.90
2019-05-15T00:22:39.935Z,33.00
2019-05-15T00:25:09.009Z,33.00
2019-05-15T00:27:38.321Z,33.10
2019-05-15T00:30:04.728Z,32.90
2019-05-15T00:32:31.818Z,33.00
2019-05-15T00:34:58.930Z,32.90
2019-05-15T00:37:25.994Z,33.30
2019-05-15T00:39:53.096Z,32.90
2019-05-15T00:42:20.165Z,32.90
2019-05-15T00:44:49.266Z,32.90
2019-05-15T00:47:18.130Z,33.00
2019-05-15T00:49:45.326Z,33.00
2019-05-15T00:52:12.467Z,33.00
2019-05-15T00:54:39.569Z,32.90
2019-05-15T00:57:08.560Z,33.00
2019-05-15T00:59:35.436Z,32.90
2019-05-15T01:02:02.497Z,32.80
2019-05-15T01:04:29.558Z,32.80
2019-05-15T01:06:58.858Z,32.70
2019-05-15T01:09:25.548Z,32.80
2019-05-15T01:11:52.740Z,32.90
2019-05-15T01:14:19.808Z,32.80
2019-05-15T01:16:48.985Z,32.80
2019-05-15T01:19:15.701Z,32.80
2019-05-15T01:21:42.971Z,32.80
2019-05-15T01:24:10.036Z,32.70
2019-05-15T01:26:38.522Z,32.70
2019-05-15T01:29:05.944Z,32.70
2019-05-15T01:31:33.064Z,32.60
2019-05-15T01:34:00.187Z,32.60
2019-05-15T01:36:28.729Z,32.60
2019-05-15T01:38:58.312Z,32.60
2019-05-15T01:41:24.938Z,32.50
2019-05-15T01:43:52.150Z,32.50
2019-05-15T01:46:19.288Z,32.60
2019-05-15T01:48:46.401Z,32.60
2019-05-15T01:51:13.481Z,32.50
2019-05-15T01:53:40.584Z,32.60
2019-05-15T01:56:08.387Z,32.50
2019-05-15T01:58:38.006Z,32.60
2019-05-15T02:01:04.616Z,32.50
2019-05-15T02:03:31.802Z,32.50
2019-05-15T02:05:58.866Z,32.50
2019-05-15T02:08:28.247Z,32.50
2019-05-15T02:10:54.786Z,32.40
2019-05-15T02:13:21.883Z,32.50
2019-05-15T02:15:48.986Z,32.40
2019-05-15T02:18:16.143Z,32.50
2019-05-15T02:20:43.208Z,32.40
2019-05-15T02:23:11.945Z,32.50
2019-05-15T02:28:18.392Z,32.40
2019-05-15T02:30:45.595Z,33.10
2019-05-15T02:33:12.749Z,32.30
2019-05-15T02:35:39.962Z,32.40
2019-05-15T02:38:10.310Z,32.40
2019-05-15T02:40:36.155Z,32.30
2019-05-15T02:43:03.210Z,32.20
2019-05-15T02:45:30.314Z,32.20
2019-05-15T02:47:59.677Z,32.20
2019-05-15T02:50:28.899Z,32.10
2019-05-15T02:52:55.011Z,32.20
2019-05-15T02:55:22.179Z,32.30
2019-05-15T02:57:49.595Z,32.30
2019-05-15T03:00:32.731Z,32.30
2019-05-15T03:02:45.732Z,32.20
2019-05-15T03:05:12.807Z,32.20
2019-05-15T03:07:40.690Z,32.20
2019-05-15T03:10:09.385Z,32.10
2019-05-15T03:12:40.126Z,32.10
2019-05-15T03:15:09.170Z,32.10
2019-05-15T03:17:34.525Z,32.20
2019-05-15T03:20:01.582Z,32.10
2019-05-15T03:22:29.524Z,32.20
2019-05-15T03:24:59.275Z,32.10
2019-05-15T03:27:25.710Z,32.20
2019-05-15T03:29:52.807Z,32.10
2019-05-15T03:32:32.385Z,32.20
2019-05-15T03:34:55.685Z,32.20
2019-05-15T03:37:22.160Z,32.30
2019-05-15T03:39:50.874Z,32.10
2019-05-15T03:42:15.274Z,32.20
2019-05-15T03:44:42.369Z,32.10
2019-05-15T03:47:09.789Z,32.10
2019-05-15T03:49:39.424Z,32.10
2019-05-15T03:52:05.738Z,32.20
2019-05-15T03:54:32.981Z,32.10
2019-05-15T03:57:00.156Z,32.00
2019-05-15T03:59:29.515Z,32.10
2019-05-15T04:01:56.003Z,32.00
2019-05-15T04:04:23.212Z,32.00
2019-05-15T04:06:50.319Z,31.60
2019-05-15T04:09:18.953Z,32.00
2019-05-15T04:11:49.381Z,32.00
2019-05-15T04:14:15.186Z,32.00
2019-05-15T04:16:42.279Z,32.00
2019-05-15T04:19:09.872Z,31.90
2019-05-15T04:21:41.482Z,32.00
2019-05-15T04:24:06.045Z,31.90
2019-05-15T04:26:33.107Z,32.00
2019-05-15T04:29:00.304Z,31.90
2019-05-15T04:31:35.428Z,31.90
2019-05-15T04:33:59.183Z,31.90
2019-05-15T04:36:25.139Z,31.90
2019-05-15T04:38:52.241Z,32.00
2019-05-15T04:41:19.911Z,31.90
2019-05-15T04:43:49.495Z,31.90
2019-05-15T04:46:19.377Z,31.90
2019-05-15T04:48:44.967Z,32.00
2019-05-15T04:51:12.276Z,31.80
2019-05-15T04:53:39.955Z,31.80
2019-05-15T04:56:09.456Z,31.70
2019-05-15T04:58:39.153Z,31.90
2019-05-15T05:01:04.978Z,31.70
2019-05-15T05:03:34.569Z,31.70
2019-05-15T05:06:00.889Z,31.70
2019-05-15T05:08:28.960Z,31.70
2019-05-15T05:10:59.260Z,31.80
2019-05-15T05:13:25.215Z,31.80
2019-05-15T05:15:52.328Z,31.90
2019-05-15T05:18:19.622Z,31.80
2019-05-15T05:20:48.500Z,31.70
2019-05-15T05:23:15.576Z,31.70
2019-05-15T05:25:42.647Z,31.70
2019-05-15T05:28:09.753Z,31.70
2019-05-15T05:33:29.215Z,31.80
2019-05-15T05:35:58.350Z,32.00
2019-05-15T05:38:28.371Z,32.00
2019-05-15T05:40:55.733Z,32.20
2019-05-15T05:43:22.902Z,32.10
2019-05-15T05:45:50.162Z,32.10
2019-05-15T05:48:18.745Z,32.10
2019-05-15T05:50:49.153Z,32.30
2019-05-15T05:53:15.171Z,32.40
2019-05-15T05:55:42.290Z,32.50
2019-05-15T05:58:09.363Z,32.60
2019-05-15T06:00:39.183Z,32.60
2019-05-15T06:03:05.272Z,32.60
2019-05-15T06:05:32.335Z,32.70
2019-05-15T06:07:59.486Z,33.30
2019-05-15T06:10:28.980Z,32.70
2019-05-15T06:12:55.426Z,32.60
2019-05-15T06:15:22.516Z,32.80
2019-05-15T06:17:49.598Z,32.70
2019-05-15T06:20:18.547Z,32.60
2019-05-15T06:22:47.764Z,32.60
2019-05-15T06:25:14.331Z,32.60
2019-05-15T06:27:41.428Z,32.60
2019-05-15T06:30:09.278Z,32.60
2019-05-15T06:32:39.986Z,32.60
2019-05-15T06:35:08.530Z,32.60
2019-05-15T06:37:34.829Z,32.50
2019-05-15T06:40:01.977Z,32.50
2019-05-15T06:42:29.080Z,32.40
2019-05-15T06:44:56.168Z,32.40
2019-05-15T06:47:23.251Z,32.40
2019-05-15T06:49:50.338Z,32.40
2019-05-15T06:52:18.142Z,32.30
2019-05-15T06:54:45.476Z,32.20
2019-05-15T06:57:12.542Z,32.30
2019-05-15T06:59:39.643Z,32.20
2019-05-15T07:02:08.085Z,32.20
2019-05-15T07:04:35.262Z,32.20
2019-05-15T07:07:02.366Z,32.20
2019-05-15T07:09:29.563Z,32.20
2019-05-15T07:11:58.901Z,32.20
2019-05-15T07:14:25.667Z,32.10
2019-05-15T07:16:52.759Z,32.10
2019-05-15T07:19:19.850Z,32.00
2019-05-15T07:21:48.733Z,32.00
2019-05-15T07:24:18.051Z,31.90
2019-05-15T07:26:44.717Z,31.90
2019-05-15T07:29:11.932Z,31.90
2019-05-15T07:31:39.011Z,32.60
2019-05-15T07:34:08.183Z,31.90
2019-05-15T07:36:34.963Z,31.90
2019-05-15T07:39:02.071Z,31.90
2019-05-15T07:41:29.192Z,32.40
2019-05-15T07:43:58.617Z,31.90
2019-05-15T07:46:25.236Z,31.90
2019-05-15T07:48:52.328Z,32.00
2019-05-15T07:51:19.398Z,32.10
2019-05-15T07:53:49.005Z,32.10
2019-05-15T07:56:15.267Z,32.00
2019-05-15T07:58:42.365Z,32.00
2019-05-15T08:01:10.154Z,32.00
2019-05-15T08:03:47.097Z,32.40
2019-05-15T08:06:08.615Z,32.70
2019-05-15T08:08:35.107Z,32.10
2019-05-15T08:11:16.380Z,32.00
2019-05-15T08:13:31.115Z,32.00
2019-05-15T08:15:58.206Z,32.20
2019-05-15T08:18:25.358Z,32.20
2019-05-15T08:20:52.642Z,32.20
2019-05-15T08:23:19.808Z,32.20
2019-05-15T08:25:48.490Z,32.30
2019-05-15T08:28:15.969Z,32.30
2019-05-15T08:30:43.086Z,32.30
2019-05-15T08:33:10.235Z,32.40
2019-05-15T08:35:38.656Z,32.50
2019-05-15T08:38:08.649Z,32.50
2019-05-15T08:40:34.985Z,32.60
2019-05-15T08:43:02.319Z,32.50
2019-05-15T08:45:29.678Z,32.50
2019-05-15T08:47:58.619Z,32.50
2019-05-15T08:50:25.812Z,32.60
2019-05-15T08:52:52.868Z,32.50
2019-05-15T08:55:20.283Z,32.60
2019-05-15T08:57:55.701Z,32.60
2019-05-15T09:00:18.503Z,32.50
2019-05-15T09:02:45.231Z,32.50
2019-05-15T09:05:12.383Z,32.50
2019-05-15T09:07:39.484Z,32.60
2019-05-15T09:10:08.845Z,32.60
2019-05-15T09:12:35.494Z,32.70
2019-05-15T09:15:02.639Z,33.00
2019-05-15T09:17:29.712Z,33.00
2019-05-15T09:19:58.732Z,33.20
2019-05-15T09:22:25.626Z,33.20
2019-05-15T09:24:52.725Z,33.40
2019-05-15T09:27:19.825Z,33.40
2019-05-15T09:29:48.389Z,33.60
2019-05-15T09:32:19.179Z,33.80
2019-05-15T09:34:51.689Z,34.00
2019-05-15T09:37:14.221Z,34.00
2019-05-15T09:39:41.281Z,33.90
2019-05-15T09:42:08.611Z,34.30
2019-05-15T09:44:35.792Z,34.30
2019-05-15T09:47:02.872Z,34.20
2019-05-15T09:49:29.976Z,34.10
2019-05-15T09:51:58.606Z,34.20
2019-05-15T09:54:28.657Z,34.10
2019-05-15T09:56:54.856Z,34.10
2019-05-15T09:59:22.018Z,34.30
2019-05-15T10:01:49.267Z,34.30
2019-05-15T10:04:18.795Z,34.20
2019-05-15T10:06:48.419Z,34.50
2019-05-15T10:09:14.768Z,34.40
2019-05-15T10:11:41.841Z,34.30
2019-05-15T10:14:09.849Z,34.30
2019-05-15T10:16:37.247Z,34.20
2019-05-15T10:19:04.383Z,34.10
2019-05-15T10:21:32.629Z,34.20
2019-05-15T10:24:00.047Z,34.10
2019-05-15T10:26:28.550Z,34.10
2019-05-15T10:28:58.274Z,34.10
2019-05-15T10:31:24.872Z,34.00
2019-05-15T10:33:51.939Z,34.10
2019-05-15T10:36:19.287Z,34.10
2019-05-15T10:38:48.816Z,34.30
2019-05-15T10:41:15.442Z,34.30
2019-05-15T10:43:46.156Z,34.30
2019-05-15T10:46:13.704Z,34.20
2019-05-15T10:48:40.733Z,34.00
2019-05-15T10:51:10.352Z,34.00
2019-05-15T10:53:39.063Z,34.00
2019-05-15T10:56:08.736Z,34.00
2019-05-15T10:58:35.188Z,34.10
2019-05-15T11:01:03.430Z,34.10
2019-05-15T11:03:34.625Z,34.00
2019-05-15T11:05:59.756Z,34.00
2019-05-15T11:08:29.008Z,34.10
2019-05-15T11:10:58.375Z,34.10
2019-05-15T11:13:24.551Z,34.20
2019-05-15T11:16:12.258Z,34.10
2019-05-15T11:18:39.423Z,34.00
2019-05-15T11:21:08.247Z,34.20
2019-05-15T11:23:35.656Z,34.30
2019-05-15T11:26:02.780Z,34.30
2019-05-15T11:28:32.312Z,34.80
2019-05-15T11:31:09.983Z,34.30
2019-05-15T11:33:35.412Z,34.10
2019-05-15T11:36:06.041Z,33.90
2019-05-15T11:38:33.091Z,33.80
2019-05-15T11:41:00.223Z,33.60
2019-05-15T11:43:35.111Z,33.60
2019-05-15T11:46:03.282Z,33.60
2019-05-15T11:48:30.645Z,33.60
2019-05-15T11:50:57.779Z,33.50
2019-05-15T11:53:24.866Z,33.70
2019-05-15T11:55:51.949Z,33.50
2019-05-15T11:58:19.364Z,33.60
2019-05-15T12:00:48.768Z,33.60
2019-05-15T12:03:15.345Z,33.50
2019-05-15T12:05:42.475Z,33.50
2019-05-15T12:08:12.473Z,33.50
2019-05-15T12:10:39.020Z,33.50
2019-05-15T12:13:06.343Z,33.40
2019-05-15T12:15:33.445Z,33.70
2019-05-15T12:18:00.514Z,33.80
2019-05-15T12:20:28.606Z,33.80
2019-05-15T12:22:55.918Z,33.80
2019-05-15T12:25:28.328Z,33.70
2019-05-15T12:27:51.790Z,34.60
2019-05-15T12:30:19.889Z,34.00
2019-05-15T12:35:16.213Z,33.70
2019-05-15T12:37:43.310Z,33.70
2019-05-15T12:37:59.047Z,34.00
2019-05-15T13:00:00.927Z,33.60
2019-05-15T13:02:28.223Z,33.60
2019-05-15T13:04:55.299Z,33.60
2019-05-15T13:07:22.382Z,33.70
2019-05-15T13:09:49.482Z,33.60
2019-05-15T13:12:18.193Z,33.50
2019-05-15T13:14:45.392Z,33.70
2019-05-15T13:17:13.386Z,33.70
2019-05-15T13:19:40.541Z,34.70
2019-05-15T13:22:17.651Z,34.10
2019-05-15T13:24:38.563Z,34.10
2019-05-15T13:27:05.179Z,33.90
2019-05-15T13:29:32.272Z,33.90
2019-05-15T13:31:59.396Z,33.80
2019-05-15T13:34:26.545Z,33.70
2019-05-15T13:36:53.701Z,33.60
2019-05-15T13:39:20.807Z,34.00
2019-05-15T13:41:48.485Z,33.90
2019-05-15T13:44:18.540Z,33.90
2019-05-15T13:46:44.613Z,33.80
2019-05-15T13:49:11.867Z,33.70
2019-05-15T13:51:39.175Z,33.60
2019-05-15T13:54:08.129Z,33.50
2019-05-15T13:56:35.041Z,33.60
2019-05-15T13:59:02.119Z,33.50
2019-05-15T14:01:29.406Z,33.40
2019-05-15T14:03:58.626Z,33.90
2019-05-15T14:06:25.306Z,33.80
2019-05-15T14:08:52.402Z,33.70
2019-05-15T14:11:21.856Z,33.70
2019-05-15T14:13:48.707Z,33.60
2019-05-15T14:16:15.973Z,33.50
2019-05-15T14:18:43.064Z,33.60
2019-05-15T14:21:10.286Z,33.60
2019-05-15T14:23:38.363Z,33.60
2019-05-15T14:26:15.167Z,33.40
2019-05-15T14:28:34.530Z,33.40
2019-05-15T14:31:01.603Z,33.60
2019-05-15T14:33:29.375Z,33.30
2019-05-15T14:35:57.776Z,33.50
2019-05-15T14:38:25.163Z,33.30
2019-05-15T14:40:52.234Z,33.50
2019-05-15T14:43:19.299Z,33.50
2019-05-15T14:45:48.014Z,33.80
2019-05-15T14:48:15.267Z,33.70
2019-05-15T14:50:42.325Z,33.60
2019-05-15T14:53:09.832Z,33.30
2019-05-15T14:55:43.273Z,33.30
2019-05-15T14:58:08.137Z,33.30
2019-05-15T15:00:35.248Z,33.30
2019-05-15T15:03:02.360Z,33.30
2019-05-15T15:05:30.057Z,33.30
2019-05-15T15:07:58.615Z,33.40
2019-05-15T15:10:26.185Z,33.40
2019-05-15T15:12:53.277Z,33.40
2019-05-15T15:15:20.345Z,33.40
2019-05-15T15:17:49.252Z,34.00
2019-05-15T15:20:18.074Z,33.50
2019-05-15T15:22:45.176Z,33.40
2019-05-15T15:25:12.268Z,33.50
2019-05-15T15:27:39.371Z,33.60
2019-05-15T15:30:08.840Z,33.40
2019-05-15T15:32:37.646Z,33.40
2019-05-15T15:35:04.138Z,33.40
2019-05-15T15:37:31.227Z,33.40
2019-05-15T15:39:58.843Z,33.40
2019-05-15T15:42:28.435Z,33.40
2019-05-15T15:44:55.097Z,33.50
2019-05-15T15:47:22.672Z,33.50
2019-05-15T15:49:49.794Z,33.60
2019-05-15T15:52:18.112Z,33.40
2019-05-15T15:54:45.380Z,33.60
2019-05-15T15:57:12.716Z,33.50
2019-05-15T15:59:39.811Z,33.40
2019-05-15T16:02:08.795Z,33.60
2019-05-15T16:04:35.686Z,33.40
2019-05-15T16:07:02.766Z,33.40
2019-05-15T16:09:29.828Z,33.40
2019-05-15T16:11:58.355Z,33.50
2019-05-15T16:14:25.982Z,33.60
2019-05-15T16:16:55.926Z,33.70
2019-05-15T16:19:23.027Z,33.50
2019-05-15T16:21:50.137Z,33.50
2019-05-15T16:24:20.789Z,33.70
2019-05-15T16:26:46.314Z,33.50
2019-05-15T16:29:14.815Z,33.70
2019-05-15T16:31:42.323Z,33.70
2019-05-15T16:34:09.412Z,33.60
2019-05-15T16:36:38.531Z,33.70
2019-05-15T16:39:09.192Z,33.60
2019-05-15T16:41:34.016Z,33.80
2019-05-15T16:44:01.235Z,33.70
2019-05-15T16:46:28.317Z,33.80
2019-05-15T16:48:58.173Z,33.90
2019-05-15T16:51:24.895Z,33.90
2019-05-15T16:53:52.009Z,33.90
2019-05-15T16:56:19.185Z,33.90
2019-05-15T16:58:48.104Z,33.90
2019-05-15T17:01:15.275Z,33.90
2019-05-15T17:03:42.343Z,33.80
2019-05-15T17:06:09.735Z,34.00
2019-05-15T17:08:37.867Z,33.90
2019-05-15T17:11:05.259Z,33.80
2019-05-15T17:13:32.322Z,33.70
2019-05-15T17:15:59.412Z,33.80
2019-05-15T17:18:26.580Z,33.80
2019-05-15T17:20:53.913Z,33.80
2019-05-15T17:23:20.997Z,33.60
2019-05-15T17:25:48.803Z,33.50
2019-05-15T17:28:18.338Z,33.70
2019-05-15T17:30:44.979Z,33.70
2019-05-15T17:33:12.090Z,33.70
2019-05-15T17:35:50.450Z,33.60
2019-05-15T17:38:18.258Z,33.70
2019-05-15T17:40:45.266Z,33.70
2019-05-15T17:43:12.621Z,33.60
2019-05-15T17:45:39.779Z,33.60
2019-05-15T17:48:08.926Z,33.60
2019-05-15T17:50:48.289Z,33.50
2019-05-15T17:53:04.450Z,33.60
2019-05-15T17:55:31.564Z,33.70
2019-05-15T17:58:01.111Z,33.60
2019-05-15T18:00:28.616Z,33.70
2019-05-15T18:02:56.262Z,33.60
2019-05-15T18:05:25.089Z,33.70
2019-05-15T18:07:53.029Z,33.70
2019-05-15T18:10:20.084Z,33.70
2019-05-15T18:12:48.780Z,33.70
2019-05-15T18:15:16.212Z,33.80
2019-05-15T18:17:43.337Z,33.80
2019-05-15T18:20:10.892Z,33.70
2019-05-15T18:22:38.255Z,33.70
2019-05-15T18:25:05.436Z,33.70
2019-05-15T18:27:32.579Z,33.70
2019-05-15T18:29:59.735Z,33.70
2019-05-15T18:32:28.625Z,33.70
2019-05-15T18:34:55.663Z,34.00
2019-05-15T18:37:22.730Z,33.90
2019-05-15T18:40:02.257Z,33.70
2019-05-15T18:42:19.008Z,33.80
2019-05-15T18:44:48.147Z,33.80
2019-05-15T18:47:15.343Z,34.50
2019-05-15T18:49:42.513Z,33.80
2019-05-15T18:52:09.627Z,33.80
2019-05-15T18:54:38.718Z,33.80
2019-05-15T18:57:05.476Z,33.80
2019-05-15T18:59:32.646Z,33.70
2019-05-15T19:01:59.945Z,33.80
2019-05-15T19:04:28.847Z,33.70
2019-05-15T19:06:58.180Z,33.70
2019-05-15T19:09:24.771Z,33.80
2019-05-15T19:11:52.041Z,33.70
2019-05-15T19:14:19.276Z,33.70
2019-05-15T19:16:48.451Z,33.70
2019-05-15T19:19:15.641Z,33.70
2019-05-15T19:21:42.876Z,33.60
2019-05-15T19:24:10.006Z,33.70
2019-05-15T19:26:37.074Z,33.60
2019-05-15T19:29:04.244Z,33.50
2019-05-15T19:31:31.475Z,33.70
2019-05-15T19:33:58.608Z,33.60
2019-05-15T19:36:27.689Z,33.60
2019-05-15T19:38:55.053Z,33.60
2019-05-15T19:41:22.322Z,33.60
2019-05-15T19:43:49.409Z,33.60
2019-05-15T19:46:16.594Z,33.50
2019-05-15T19:48:43.714Z,33.50
2019-05-15T19:51:22.602Z,33.40
2019-05-15T19:53:47.967Z,33.30
2019-05-15T19:56:15.225Z,33.30
2019-05-15T19:58:42.355Z,33.30
2019-05-15T20:01:09.622Z,33.30
2019-05-15T20:03:47.363Z,33.40
2019-05-15T20:06:05.567Z,33.40
2019-05-15T20:08:32.778Z,33.40
2019-05-15T20:10:59.904Z,33.40
2019-05-15T20:13:29.005Z,33.40
2019-05-15T20:15:58.026Z,33.50
2019-05-15T20:18:24.868Z,33.60
2019-05-15T20:20:51.951Z,33.40
2019-05-15T20:23:19.184Z,33.30
2019-05-15T20:25:46.308Z,33.40
2019-05-15T20:28:13.399Z,33.40
2019-05-15T20:30:40.560Z,33.50
2019-05-15T20:33:08.875Z,33.40
2019-05-15T20:35:38.459Z,33.30
2019-05-15T20:38:05.156Z,33.50
2019-05-15T20:40:32.461Z,33.40
2019-05-15T20:42:59.535Z,33.40
2019-05-15T20:45:29.029Z,33.50
2019-05-15T20:47:55.471Z,33.50
2019-05-15T20:50:27.817Z,33.60
2019-05-15T20:52:53.749Z,33.70
2019-05-15T20:55:20.816Z,33.80
2019-05-15T20:57:50.427Z,33.80
2019-05-15T21:00:19.198Z,33.70
2019-05-15T21:02:45.624Z,33.80
2019-05-15T21:05:12.687Z,33.70
2019-05-15T21:07:43.083Z,33.70
2019-05-15T21:10:09.133Z,33.60
2019-05-15T21:12:40.450Z,34.20
2019-05-15T21:15:08.406Z,33.50
2019-05-15T21:17:35.128Z,33.60
2019-05-15T21:20:02.344Z,33.50
2019-05-15T21:22:29.531Z,33.40
2019-05-15T21:24:56.612Z,33.40
2019-05-15T21:27:24.699Z,33.30
2019-05-15T21:29:52.244Z,33.30
2019-05-15T21:32:21.764Z,33.20
2019-05-15T21:34:49.399Z,33.20
2019-05-15T21:37:18.735Z,33.30
2019-05-15T21:39:48.354Z,33.20
2019-05-15T21:42:14.470Z,33.10
2019-05-15T21:44:41.569Z,33.10
2019-05-15T21:47:08.929Z,33.20
2019-05-15T21:49:36.058Z,33.10
2019-05-15T21:52:03.974Z,33.20
2019-05-15T21:54:31.067Z,33.10
2019-05-15T21:57:12.828Z,33.10
2019-05-15T21:59:27.920Z,33.00
2019-05-15T22:01:55.243Z,33.00
2019-05-15T22:04:22.308Z,33.00
2019-05-15T22:06:49.418Z,33.00
2019-05-15T22:09:18.362Z,33.10
2019-05-15T22:11:45.484Z,33.10
2019-05-15T22:14:12.600Z,33.10
2019-05-15T22:16:39.691Z,32.90
2019-05-15T22:19:06.786Z,33.00
2019-05-15T22:21:33.964Z,33.00
2019-05-15T22:24:01.171Z,33.00
2019-05-15T22:26:29.025Z,32.90
2019-05-15T22:28:58.373Z,33.50
2019-05-15T22:31:25.348Z,32.90
2019-05-15T22:33:52.441Z,32.90
2019-05-15T22:36:19.551Z,32.80
2019-05-15T22:38:48.353Z,33.40
2019-05-15T22:41:15.735Z,32.80
2019-05-15T22:43:42.840Z,32.80
2019-05-15T22:46:10.935Z,32.80
2019-05-15T22:48:38.335Z,32.80
2019-05-15T22:51:05.409Z,32.80
2019-05-15T22:53:33.075Z,32.70
2019-05-15T22:56:00.145Z,32.70
2019-05-15T22:58:28.136Z,32.80
2019-05-15T23:00:55.446Z,32.70
2019-05-15T23:03:22.708Z,32.80
2019-05-15T23:05:49.819Z,32.80
2019-05-15T23:08:18.415Z,32.70
2019-05-15T23:10:48.431Z,32.70
2019-05-15T23:13:14.461Z,32.70
2019-05-15T23:15:41.553Z,32.70
2019-05-15T23:18:08.695Z,32.70
2019-05-15T23:20:35.944Z,32.60
2019-05-15T23:23:03.179Z,32.60
2019-05-15T23:25:30.390Z,32.70
2019-05-15T23:27:58.162Z,32.60
2019-05-15T23:30:25.764Z,32.60
2019-05-15T23:32:52.970Z,32.70
2019-05-15T23:35:20.132Z,32.60
2019-05-15T23:37:48.587Z,32.60
2019-05-15T23:40:17.992Z,32.60
2019-05-15T23:42:45.580Z,32.50
2019-05-15T23:45:12.782Z,32.50
2019-05-15T23:47:39.908Z,32.40
2019-05-15T23:50:07.272Z,32.40
2019-05-15T23:52:34.359Z,32.50
2019-05-15T23:55:01.546Z,32.40
2019-05-15T23:57:28.764Z,32.40
2019-05-15T23:59:56.024Z,32.30
